Time;durP1;ratioP1;P1;durP2;ratioP2;P2;SDS_P1;SDS_P2;PMS_P1;PMS_P2;Temp;Humidity;BMP_temperature;BMP_pressure;BME280_temperature;BME280_humidity;BME280_pressure;Samples;Min_cycle;Max_cycle;Signal;HPM_P1;HPM_P2
2023/04/02 00:02:28;;;;;;;0.50;0.50;;;;;;;28.08;30.96;100218.22;7393324;19;20021;-80
2023/04/02 00:05:16;;;;;;;0.38;0.38;;;;;;;25.08;34.30;100223.31;7389593;19;20018;-80
2023/04/02 00:07:47;;;;;;;0.40;0.40;;;;;;;25.89;33.15;100219.53;7390937;19;20015;-80
2023/04/02 00:10:33;;;;;;;0.40;0.30;;;;;;;26.33;32.66;100226.47;7392371;19;20022;-80
2023/04/02 00:13:10;;;;;;;1.73;0.75;;;;;;;26.16;33.07;100229.22;7392055;19;20023;-80
2023/04/02 00:15:42;;;;;;;0.93;0.93;;;;;;;26.00;33.14;100231.31;7387731;19;20025;-80
2023/04/02 00:18:17;;;;;;;0.30;0.30;;;;;;;26.47;33.05;100235.53;7391650;19;20030;-79
2023/04/02 00:20:47;;;;;;;0.52;0.52;;;;;;;26.92;32.06;100229.66;7391950;19;20015;-79
2023/04/02 00:23:15;;;;;;;0.80;0.75;;;;;;;27.28;31.84;100241.41;7394014;19;20021;-80
2023/04/02 00:25:44;;;;;;;0.55;0.55;;;;;;;27.34;31.71;100238.31;7389994;19;20021;-79
2023/04/02 00:28:29;;;;;;;1.02;1.02;;;;;;;27.14;32.11;100248.00;7390802;19;20019;-80
2023/04/02 00:30:58;;;;;;;0.30;0.30;;;;;;;27.05;31.93;100244.41;7390015;19;20025;-80
2023/04/02 00:33:30;;;;;;;0.50;0.50;;;;;;;26.93;31.98;100251.94;7389050;19;20414;-79
2023/04/02 00:35:56;;;;;;;0.38;0.38;;;;;;;27.04;31.75;100251.50;7389736;19;20017;-80
2023/04/02 00:38:30;;;;;;;0.40;0.40;;;;;;;26.93;31.80;100254.78;7389616;19;20018;-79
2023/04/02 00:41:00;;;;;;;0.93;0.75;;;;;;;27.05;31.44;100270.16;7391784;19;20014;-79
2023/04/02 00:43:30;;;;;;;0.50;0.50;;;;;;;27.00;31.88;100267.53;7389841;19;20026;-80
2023/04/02 00:46:02;;;;;;;0.38;0.38;;;;;;;27.03;31.67;100267.13;7388177;19;20014;-80
2023/04/02 00:48:31;;;;;;;2.80;0.55;;;;;;;27.04;31.50;100279.31;7382262;19;20018;-80
2023/04/02 00:51:19;;;;;;;0.63;0.55;;;;;;;26.93;31.94;100274.03;7390856;19;20030;-80
2023/04/02 00:53:47;;;;;;;0.52;0.52;;;;;;;28.86;29.98;100284.16;7393465;19;20045;-79
2023/04/02 00:56:24;;;;;;;1.23;1.00;;;;;;;29.35;29.63;100283.84;7400478;19;20022;-80
2023/04/02 00:58:56;;;;;;;0.60;0.60;;;;;;;29.42;29.53;100291.59;7395182;19;20022;-79
2023/04/02 01:01:26;;;;;;;0.75;0.57;;;;;;;29.45;29.36;100293.28;7396367;19;20468;-79
2023/04/02 01:03:57;;;;;;;1.10;0.98;;;;;;;29.29;29.39;100294.84;7394753;19;20503;-80
2023/04/02 01:06:30;;;;;;;0.82;0.47;;;;;;;29.51;29.35;100285.13;7393813;19;20018;-80
2023/04/02 01:09:09;;;;;;;1.30;0.90;;;;;;;29.57;28.96;100299.97;7393010;19;20025;-80
2023/04/02 01:11:56;;;;;;;0.65;0.50;;;;;;;29.57;29.19;100302.06;7396191;19;20010;-79
2023/04/02 01:14:50;;;;;;;0.50;0.47;;;;;;;29.46;28.78;100305.50;7393625;19;20049;-79
2023/04/02 01:17:32;;;;;;;0.32;0.32;;;;;;;29.43;29.18;100318.94;7395250;19;20466;-80
2023/04/02 01:20:21;;;;;;;0.30;0.30;;;;;;;29.64;29.26;100310.56;7395801;19;20006;-79
2023/04/02 01:22:57;;;;;;;1.73;1.15;;;;;;;29.73;28.92;100306.97;7399794;19;20032;-79
2023/04/02 01:25:35;;;;;;;0.50;0.50;;;;;;;28.82;29.44;100316.13;7395027;19;20018;-79
2023/04/02 01:28:25;;;;;;;0.70;0.70;;;;;;;26.59;32.21;100314.56;7396104;19;20337;-78
2023/04/02 01:30:55;;;;;;;3.55;0.40;;;;;;;26.56;32.34;100315.72;7395443;19;20020;-79
2023/04/02 01:33:24;;;;;;;1.05;0.93;;;;;;;26.82;31.87;100312.41;7394314;19;20663;-80
2023/04/02 01:36:18;;;;;;;0.43;0.43;;;;;;;26.91;31.97;100320.38;7396582;19;20018;-79
2023/04/02 01:39:01;;;;;;;9.32;0.95;;;;;;;14.86;52.39;100347.25;7393612;19;20868;-80
2023/04/02 01:41:36;;;;;;;1.23;0.68;;;;;;;12.74;91.44;100352.81;7397297;19;20518;-80
2023/04/02 01:44:13;;;;;;;2.22;0.63;;;;;;;12.95;94.20;100346.88;7392192;19;20021;-80
2023/04/02 01:46:41;;;;;;;0.77;0.68;;;;;;;12.42;100.00;100353.69;7391082;19;20100;-80
2023/04/02 01:49:13;;;;;;;0.50;0.50;;;;;;;11.74;100.00;100361.03;7390225;19;20033;-82
2023/04/02 01:51:45;;;;;;;1.27;0.93;;;;;;;11.69;100.00;100358.91;7395478;19;20022;-83
2023/04/02 01:54:16;;;;;;;0.55;0.55;;;;;;;18.24;87.88;100345.97;7392722;19;20010;-83
2023/04/02 01:56:44;;;;;;;0.50;0.50;;;;;;;12.22;100.00;100367.47;7401262;19;20022;-82
2023/04/02 01:59:12;;;;;;;0.25;0.25;;;;;;;11.19;100.00;100377.91;7394294;19;20015;-82
2023/04/02 02:01:51;;;;;;;0.85;0.70;;;;;;;13.04;100.00;100373.25;7395985;19;20010;-82
2023/04/02 02:04:18;;;;;;;0.50;0.50;;;;;;;13.85;100.00;100366.78;7391170;19;20330;-81
2023/04/02 02:06:46;;;;;;;6.40;0.85;;;;;;;23.24;58.02;100356.97;7392451;19;20043;-81
2023/04/02 02:09:21;;;;;;;0.30;0.30;;;;;;;25.61;45.63;100366.00;7392094;19;20018;-80
2023/04/02 02:11:49;;;;;;;0.60;0.60;;;;;;;26.67;41.23;100366.72;7394369;19;20022;-81
2023/04/02 02:17:25;;;;;;;0.75;0.75;;;;;;;27.01;38.86;100378.44;7396983;19;20334;-56
2023/04/02 02:19:55;;;;;;;0.82;0.82;;;;;;;27.09;38.02;100374.81;7394105;19;20007;-56
2023/04/02 02:22:36;;;;;;;0.95;0.80;;;;;;;27.30;37.49;100378.13;7398891;19;20014;-56
2023/04/02 02:25:10;;;;;;;5.65;1.25;;;;;;;27.41;36.78;100381.34;7397335;19;20062;-56
2023/04/02 02:28:02;;;;;;;2.03;0.68;;;;;;;27.27;36.56;100382.13;7395589;19;20011;-56
2023/04/02 02:30:35;;;;;;;0.22;0.20;;;;;;;27.14;36.22;100391.72;7394360;19;20015;-56
2023/04/02 02:33:20;;;;;;;0.32;0.32;;;;;;;27.11;35.82;100400.72;7394612;19;20334;-56
2023/04/02 02:36:04;;;;;;;0.82;0.70;;;;;;;26.88;36.20;100397.94;7395843;19;20027;-56
2023/04/02 02:38:49;;;;;;;0.38;0.38;;;;;;;27.03;35.89;100403.59;7396023;19;20007;-56
2023/04/02 02:41:49;;;;;;;0.30;0.30;;;;;;;27.22;35.72;100408.88;7396113;19;20006;-56
2023/04/02 02:44:33;;;;;;;2.05;1.42;;;;;;;27.34;35.24;100401.34;7394791;19;20082;-56
2023/04/02 02:47:07;;;;;;;3.63;0.70;;;;;;;27.20;35.34;100406.56;7394543;19;20020;-56
2023/04/02 02:49:41;;;;;;;0.63;0.43;;;;;;;27.20;35.26;100423.00;7396805;19;20022;-56
2023/04/02 02:52:07;;;;;;;2.90;0.80;;;;;;;27.25;35.17;100425.63;7395498;19;20019;-56
2023/04/02 02:54:44;;;;;;;0.30;0.30;;;;;;;27.19;35.08;100418.59;7396656;19;20021;-56
2023/04/02 02:57:16;;;;;;;0.43;0.43;;;;;;;27.01;35.21;100429.91;7394759;19;20014;-56
2023/04/02 02:59:44;;;;;;;0.55;0.38;;;;;;;27.32;35.32;100436.28;7395399;19;20070;-56
2023/04/02 03:02:12;;;;;;;0.43;0.43;;;;;;;27.00;35.24;100434.13;7397255;19;20051;-56
2023/04/02 03:04:38;;;;;;;1.05;0.95;;;;;;;26.94;34.97;100432.81;7392309;19;20010;-56
2023/04/02 03:07:12;;;;;;;1.73;1.00;;;;;;;26.88;34.87;100423.66;7394489;19;20011;-56
2023/04/02 03:10:17;;;;;;;0.50;0.50;;;;;;;26.80;35.44;100432.25;7394320;19;20015;-56
2023/04/02 03:13:07;;;;;;;0.85;0.85;;;;;;;26.78;35.65;100439.88;7393047;19;20074;-56
2023/04/02 03:15:42;;;;;;;0.30;0.22;;;;;;;26.96;35.27;100444.44;7394341;19;20030;-56
2023/04/02 03:18:47;;;;;;;0.65;0.35;;;;;;;26.98;35.32;100453.94;7393776;19;20038;-56
2023/04/02 03:21:32;;;;;;;1.20;0.65;;;;;;;26.92;34.95;100450.50;7392676;19;20018;-56
2023/04/02 03:24:16;;;;;;;0.50;0.50;;;;;;;26.82;35.62;100469.59;7394187;19;20066;-56
2023/04/02 03:26:51;;;;;;;0.50;0.50;;;;;;;26.94;35.16;100452.81;7398186;19;20035;-56
2023/04/02 03:29:29;;;;;;;0.32;0.20;;;;;;;27.08;35.05;100456.19;7393575;19;20014;-56
2023/04/02 03:32:03;;;;;;;3.92;0.63;;;;;;;27.09;35.02;100467.06;7396542;19;20022;-55
2023/04/02 03:34:35;;;;;;;0.93;0.75;;;;;;;27.14;34.62;100465.34;7393994;19;20025;-56
2023/04/02 03:37:21;;;;;;;0.45;0.45;;;;;;;27.23;34.74;100476.16;7392688;19;20472;-56
2023/04/02 03:40:07;;;;;;;1.40;0.60;;;;;;;27.23;34.78;100470.44;7392452;19;20070;-56
2023/04/02 03:42:58;;;;;;;0.28;0.28;;;;;;;27.29;34.60;100477.47;7396386;19;20036;-57
2023/04/02 03:45:31;;;;;;;2.15;0.60;;;;;;;27.04;34.32;100479.47;7394514;19;20010;-55
2023/04/02 03:48:05;;;;;;;0.40;0.40;;;;;;;26.98;34.60;100482.53;7394356;19;20015;-55
2023/04/02 03:50:43;;;;;;;0.68;0.68;;;;;;;26.99;34.52;100494.72;7393937;19;20023;-55
2023/04/02 03:53:11;;;;;;;0.20;0.20;;;;;;;27.01;34.88;100497.75;7393378;19;20010;-55
2023/04/02 03:55:40;;;;;;;0.22;0.22;;;;;;;26.97;34.73;100497.41;7395967;19;20031;-55
2023/04/02 03:58:15;;;;;;;0.30;0.30;;;;;;;26.81;34.74;100490.94;7393518;19;20031;-55
2023/04/02 04:00:48;;;;;;;0.82;0.73;;;;;;;26.84;34.67;100501.25;7392735;19;20010;-55
2023/04/02 04:03:35;;;;;;;0.63;0.63;;;;;;;26.93;34.81;100502.75;7391084;19;20025;-55
2023/04/02 04:06:15;;;;;;;0.63;0.63;;;;;;;26.91;34.62;100503.31;7391735;19;20092;-56
2023/04/02 04:08:49;;;;;;;0.30;0.30;;;;;;;27.03;34.62;100507.28;7391879;19;20030;-56
2023/04/02 04:11:21;;;;;;;3.20;1.13;;;;;;;27.11;34.62;100515.09;7393796;19;20019;-56
2023/04/02 04:14:17;;;;;;;0.28;0.28;;;;;;;26.99;34.18;100517.59;7392606;19;20018;-56
2023/04/02 04:17:12;;;;;;;0.63;0.63;;;;;;;26.99;34.13;100529.81;7392373;19;20039;-56
2023/04/02 04:19:45;;;;;;;0.30;0.30;;;;;;;26.98;34.55;100533.25;7393583;19;20351;-56
2023/04/02 04:22:28;;;;;;;0.40;0.40;;;;;;;26.92;34.68;100519.13;7395554;19;20038;-56
2023/04/02 04:25:16;;;;;;;0.55;0.55;;;;;;;26.89;34.90;100526.00;7396506;19;20099;-56
2023/04/02 04:28:25;;;;;;;0.30;0.30;;;;;;;26.77;34.91;100529.81;7399651;19;20018;-56
2023/04/02 04:31:17;;;;;;;0.30;0.30;;;;;;;25.85;35.46;100527.38;7400581;19;20018;-56
2023/04/02 04:33:53;;;;;;;0.30;0.30;;;;;;;26.84;34.60;100526.97;7400376;19;20011;-56
2023/04/02 04:36:30;;;;;;;0.63;0.60;;;;;;;26.82;34.73;100526.00;7399441;19;20039;-56
2023/04/02 04:39:13;;;;;;;0.50;0.50;;;;;;;26.76;34.29;100534.78;7399619;19;20094;-56
2023/04/02 04:41:43;;;;;;;0.47;0.47;;;;;;;26.72;34.26;100530.75;7401702;19;20010;-56
2023/04/02 04:44:22;;;;;;;0.20;0.20;;;;;;;26.58;34.39;100530.19;7396541;19;20062;-56
2023/04/02 04:47:02;;;;;;;1.27;0.85;;;;;;;26.57;34.58;100527.91;7399045;19;20014;-56
2023/04/02 04:49:43;;;;;;;0.30;0.30;;;;;;;26.74;34.45;100543.19;7399248;19;20011;-56
2023/04/02 04:52:13;;;;;;;;;;;;;;;26.97;34.09;100538.19;7402863;19;20018;-56
2023/04/02 04:54:39;;;;;;;0.30;0.30;;;;;;;26.90;34.02;100543.91;7399080;19;19936;-56
2023/04/02 04:57:39;;;;;;;0.95;0.90;;;;;;;26.93;34.14;100557.84;7400532;19;20043;-56
2023/04/02 05:00:23;;;;;;;0.35;0.35;;;;;;;27.03;33.99;100546.56;7398785;19;20038;-56
2023/04/02 05:03:05;;;;;;;0.55;0.55;;;;;;;26.94;33.86;100559.34;7401743;19;20030;-56
2023/04/02 05:05:38;;;;;;;0.45;0.30;;;;;;;27.04;33.90;100563.16;7398252;19;20014;-56
2023/04/02 05:08:14;;;;;;;2.33;0.63;;;;;;;26.99;34.05;100569.81;7397813;19;20029;-56
2023/04/02 05:10:50;;;;;;;0.20;0.20;;;;;;;27.03;34.31;100581.63;7398197;19;20014;-56
2023/04/02 05:13:24;;;;;;;0.40;0.40;;;;;;;27.07;33.90;100583.38;7397419;19;20018;-56
2023/04/02 05:16:11;;;;;;;0.60;0.40;;;;;;;26.99;33.97;100587.00;7398446;19;20007;-56
2023/04/02 05:18:44;;;;;;;0.45;0.45;;;;;;;26.97;34.27;100594.59;7398104;19;20014;-56
2023/04/02 05:21:32;;;;;;;1.05;0.50;;;;;;;26.95;34.14;100603.75;7398115;19;20100;-56
2023/04/02 05:24:34;;;;;;;1.20;0.50;;;;;;;26.90;34.43;100601.09;7395843;19;20032;-56
2023/04/02 05:27:09;;;;;;;0.80;0.80;;;;;;;26.89;33.92;100614.63;7398408;19;20014;-57
2023/04/02 05:29:41;;;;;;;0.50;0.50;;;;;;;26.86;33.78;100606.44;7397588;19;20041;-57
2023/04/02 05:32:16;;;;;;;5.35;0.50;;;;;;;26.64;34.34;100607.91;7399952;19;20014;-57
2023/04/02 05:34:48;;;;;;;0.43;0.43;;;;;;;26.62;34.20;100616.28;7397690;19;20016;-57
2023/04/02 05:37:18;;;;;;;;;;;;;;;26.75;33.91;100619.00;7397140;19;20159;-56
2023/04/02 05:39:45;;;;;;;0.63;0.63;;;;;;;26.69;34.11;100621.25;7399624;19;19982;-56
2023/04/02 05:42:36;;;;;;;0.75;0.40;;;;;;;26.75;33.94;100624.72;7400498;19;20017;-56
2023/04/02 05:45:33;;;;;;;3.88;0.95;;;;;;;26.64;34.35;100622.19;7396649;19;20006;-56
2023/04/02 05:48:10;;;;;;;0.88;0.88;;;;;;;26.59;34.07;100631.72;7396516;19;20014;-56
2023/04/02 05:50:46;;;;;;;2.17;0.57;;;;;;;26.52;34.59;100641.03;7397473;19;20036;-57
2023/04/02 05:53:35;;;;;;;1.10;0.50;;;;;;;26.44;34.57;100648.84;7396647;19;20042;-57
2023/04/02 05:56:20;;;;;;;0.45;0.45;;;;;;;26.42;34.43;100642.94;7400503;19;20010;-57
2023/04/02 05:59:02;;;;;;;1.20;0.70;;;;;;;26.31;34.62;100646.16;7396409;19;20469;-57
2023/04/02 06:01:36;;;;;;;0.40;0.40;;;;;;;26.26;34.83;100649.94;7398210;19;20010;-57
2023/04/02 06:04:24;;;;;;;0.15;0.15;;;;;;;26.26;34.60;100652.78;7394645;19;20439;-57
2023/04/02 06:07:06;;;;;;;1.15;0.85;;;;;;;26.23;34.70;100666.09;7396918;19;20029;-56
2023/04/02 06:10:03;;;;;;;1.45;0.57;;;;;;;26.14;35.14;100668.75;7396311;19;20355;-56
2023/04/02 06:12:52;;;;;;;0.60;0.57;;;;;;;26.03;34.96;100669.78;7400347;19;20015;-57
2023/04/02 06:15:22;;;;;;;0.40;0.40;;;;;;;25.81;35.15;100669.69;7396134;19;20014;-57
2023/04/02 06:17:52;;;;;;;0.22;0.22;;;;;;;25.68;35.11;100686.91;7394943;19;20483;-57
2023/04/02 06:20:20;;;;;;;0.50;0.50;;;;;;;25.61;35.27;100688.41;7395538;19;20014;-57
2023/04/02 06:22:54;;;;;;;0.75;0.68;;;;;;;25.49;35.78;100687.94;7400137;19;20029;-56
2023/04/02 06:25:32;;;;;;;0.63;0.63;;;;;;;25.50;35.77;100689.47;7397857;19;20010;-57
2023/04/02 06:28:04;;;;;;;1.58;0.60;;;;;;;24.04;37.10;100692.69;7395539;19;20353;-58
2023/04/02 06:30:34;;;;;;;0.52;0.52;;;;;;;23.58;37.95;100696.19;7396394;19;20027;-58
2023/04/02 06:33:02;;;;;;;4.63;0.67;;;;;;;24.48;37.18;100710.09;7395946;19;20494;-57
2023/04/02 06:35:29;;;;;;;1.38;1.05;;;;;;;25.44;36.22;100714.53;7395609;19;20007;-57
2023/04/02 06:38:04;;;;;;;0.50;0.50;;;;;;;25.71;35.51;100720.78;7395523;19;20334;-57
2023/04/02 06:40:45;;;;;;;0.60;0.60;;;;;;;25.85;35.47;100721.47;7395779;19;20518;-57
2023/04/02 06:43:27;;;;;;;0.55;0.55;;;;;;;25.87;35.16;100728.13;7394484;19;20021;-57
2023/04/02 06:46:02;;;;;;;0.68;0.68;;;;;;;26.01;34.99;100740.22;7395875;19;20034;-57
2023/04/02 06:48:47;;;;;;;0.65;0.65;;;;;;;26.13;35.07;100741.44;7392028;19;20014;-57
2023/04/02 06:51:17;;;;;;;0.60;0.57;;;;;;;25.92;35.29;100740.72;7396320;19;20011;-57
2023/04/02 06:53:47;;;;;;;0.70;0.70;;;;;;;25.98;35.30;100741.34;7395365;19;20028;-57
2023/04/02 06:56:42;;;;;;;0.20;0.20;;;;;;;25.83;34.85;100752.66;7398236;19;20044;-58
2023/04/02 06:59:11;;;;;;;0.55;0.55;;;;;;;25.70;35.06;100761.31;7394308;19;20011;-58
2023/04/02 07:01:48;;;;;;;2.88;0.95;;;;;;;25.76;35.18;100764.78;7395953;19;20011;-58
2023/04/02 07:04:14;;;;;;;0.65;0.65;;;;;;;25.76;34.87;100776.19;7391204;19;20011;-58
2023/04/02 07:06:43;;;;;;;2.65;0.93;;;;;;;25.69;35.13;100777.66;7394472;19;20528;-57
2023/04/02 07:09:12;;;;;;;1.00;1.00;;;;;;;25.73;34.73;100777.31;7394143;19;20077;-57
2023/04/02 07:11:41;;;;;;;2.45;0.82;;;;;;;25.61;34.81;100776.84;7396947;19;20015;-57
2023/04/02 07:14:14;;;;;;;2.92;1.02;;;;;;;25.58;34.66;100774.34;7394062;19;20034;-57
2023/04/02 07:16:42;;;;;;;5.05;0.55;;;;;;;25.12;35.19;100781.69;7394040;19;20021;-57
2023/04/02 07:19:17;;;;;;;3.92;0.80;;;;;;;25.50;34.99;100792.16;7393792;19;20454;-57
2023/04/02 07:21:44;;;;;;;1.13;0.65;;;;;;;25.56;34.76;100786.31;7395776;19;20011;-57
2023/04/02 07:24:11;;;;;;;3.58;1.58;;;;;;;25.41;34.51;100784.06;7392943;19;20336;-58
2023/04/02 07:26:37;;;;;;;1.33;0.90;;;;;;;25.46;34.26;100783.19;7398021;19;20019;-58
2023/04/02 07:29:08;;;;;;;1.50;0.88;;;;;;;25.67;34.57;100782.38;7395476;19;20014;-59
2023/04/02 07:31:37;;;;;;;0.95;0.95;;;;;;;25.85;34.42;100789.97;7397677;19;20038;-58
2023/04/02 07:34:04;;;;;;;1.40;1.30;;;;;;;25.93;34.29;100793.63;7393611;19;20014;-57
2023/04/02 07:36:30;;;;;;;1.15;1.08;;;;;;;25.97;33.96;100799.72;7395120;19;20354;-58
2023/04/02 07:38:57;;;;;;;1.70;1.30;;;;;;;25.97;33.95;100797.66;7396223;19;20014;-58
2023/04/02 07:41:23;;;;;;;0.57;0.57;;;;;;;25.97;33.63;100800.50;7394182;19;20364;-58
2023/04/02 07:43:49;;;;;;;4.50;1.33;;;;;;;26.07;33.56;100815.06;7393129;19;20459;-58
2023/04/02 07:46:17;;;;;;;16.90;2.08;;;;;;;26.06;33.42;100814.28;7393110;19;20010;-58
2023/04/02 07:48:44;;;;;;;20.00;1.75;;;;;;;26.11;33.39;100819.13;7392799;19;20006;-58
2023/04/02 07:51:22;;;;;;;0.35;0.35;;;;;;;25.92;33.24;100821.44;7394370;19;20015;-58
2023/04/02 07:53:50;;;;;;;1.75;0.68;;;;;;;25.90;33.36;100826.16;7394093;19;20455;-58
2023/04/02 07:56:18;;;;;;;0.40;0.40;;;;;;;25.75;32.90;100826.78;7398758;19;20014;-58
2023/04/02 07:58:45;;;;;;;0.93;0.55;;;;;;;25.76;32.98;100827.56;7393875;19;20011;-58
2023/04/02 08:01:26;;;;;;;0.75;0.75;;;;;;;25.83;32.80;100829.72;7393850;19;20341;-58
2023/04/02 08:03:53;;;;;;;0.60;0.60;;;;;;;25.86;32.96;100829.34;7391134;19;20024;-58
2023/04/02 08:06:20;;;;;;;3.72;1.33;;;;;;;26.00;32.79;100833.66;7391913;19;20070;-58
2023/04/02 08:08:46;;;;;;;5.22;1.00;;;;;;;26.08;32.87;100842.25;7392119;19;20014;-58
2023/04/02 08:11:12;;;;;;;3.50;0.50;;;;;;;26.15;32.69;100842.34;7394047;19;20021;-58
2023/04/02 08:13:38;;;;;;;1.40;1.10;;;;;;;26.31;32.58;100848.94;7393796;19;20010;-58
2023/04/02 08:16:06;;;;;;;1.10;0.98;;;;;;;26.34;32.22;100850.66;7394266;19;20021;-58
2023/04/02 08:18:32;;;;;;;0.73;0.73;;;;;;;26.28;32.20;100850.81;7393636;19;20355;-58
2023/04/02 08:20:59;;;;;;;0.52;0.40;;;;;;;26.26;32.18;100861.28;7393956;19;20083;-58
2023/04/02 08:23:27;;;;;;;0.85;0.68;;;;;;;26.31;31.47;100866.06;7392863;19;20474;-58
2023/04/02 08:25:54;;;;;;;1.73;1.05;;;;;;;26.33;31.42;100863.41;7396471;19;20014;-58
2023/04/02 08:28:21;;;;;;;0.63;0.30;;;;;;;26.54;31.46;100864.13;7394175;19;20014;-58
2023/04/02 08:30:48;;;;;;;0.60;0.52;;;;;;;26.44;31.67;100868.81;7393560;19;20337;-59
2023/04/02 08:33:16;;;;;;;1.08;0.95;;;;;;;26.51;31.63;100868.09;7391998;19;20034;-58
2023/04/02 08:35:45;;;;;;;1.17;1.13;;;;;;;26.63;31.63;100880.75;7392968;19;20382;-58
2023/04/02 08:38:19;;;;;;;0.20;0.20;;;;;;;26.58;30.93;100873.09;7392791;19;20051;-58
2023/04/02 08:40:49;;;;;;;1.55;0.68;;;;;;;26.52;31.32;100872.47;7393689;19;20020;-58
2023/04/02 08:43:36;;;;;;;0.90;0.73;;;;;;;26.63;30.82;100875.03;7392623;19;20011;-58
2023/04/02 08:46:17;;;;;;;0.55;0.55;;;;;;;26.67;30.68;100878.28;7392156;19;20348;-58
2023/04/02 08:48:51;;;;;;;0.70;0.68;;;;;;;26.69;30.87;100884.19;7390441;19;20359;-58
2023/04/02 08:51:25;;;;;;;0.45;0.45;;;;;;;26.88;30.86;100878.97;7393073;19;20039;-58
2023/04/02 08:54:00;;;;;;;3.30;0.93;;;;;;;26.83;30.49;100894.19;7390746;19;20070;-58
2023/04/02 08:56:39;;;;;;;0.55;0.55;;;;;;;26.86;30.92;100898.03;7394868;19;20041;-57
2023/04/02 08:59:23;;;;;;;1.17;1.00;;;;;;;26.84;30.81;100900.69;7390645;19;20147;-57
2023/04/02 09:02:06;;;;;;;2.05;1.05;;;;;;;26.90;30.87;100910.63;7395215;19;20490;-57
2023/04/02 09:04:33;;;;;;;2.40;1.25;;;;;;;26.90;30.83;100910.63;7389747;19;20033;-57
2023/04/02 09:06:59;;;;;;;0.63;0.63;;;;;;;27.10;30.60;100919.66;7390172;19;20070;-57
2023/04/02 09:09:26;;;;;;;0.60;0.60;;;;;;;27.29;30.64;100920.13;7392129;19;20015;-57
2023/04/02 09:12:00;;;;;;;11.60;1.35;;;;;;;27.45;30.52;100919.63;7400518;19;20015;-57
2023/04/02 09:14:55;;;;;;;0.98;0.65;;;;;;;27.50;30.28;100920.78;7399503;19;20086;-57
2023/04/02 09:17:23;;;;;;;0.57;0.57;;;;;;;27.46;29.98;100915.44;7397978;19;20371;-57
2023/04/02 09:20:16;;;;;;;1.10;0.60;;;;;;;27.40;30.09;100925.53;7398772;19;20470;-57
2023/04/02 09:22:45;;;;;;;1.33;0.80;;;;;;;27.41;30.46;100919.25;7403243;19;20011;-58
2023/04/02 09:25:17;;;;;;;6.22;0.55;;;;;;;27.43;30.04;100939.47;7401599;19;20070;-58
2023/04/02 09:27:48;;;;;;;1.00;0.70;;;;;;;27.31;30.08;100932.53;7399374;19;20015;-57
2023/04/02 09:30:52;;;;;;;1.25;1.15;;;;;;;27.40;30.14;100934.09;7399386;19;20018;-57
2023/04/02 09:33:18;;;;;;;0.40;0.40;;;;;;;27.38;29.79;100936.78;7398399;19;20014;-57
2023/04/02 09:35:50;;;;;;;0.73;0.65;;;;;;;27.49;29.84;100936.41;7397333;19;20018;-57
2023/04/02 09:38:20;;;;;;;1.65;0.82;;;;;;;27.39;30.21;100944.03;7398218;19;20070;-57
2023/04/02 09:40:52;;;;;;;0.30;0.30;;;;;;;27.31;30.05;100937.50;7398655;19;20030;-57
2023/04/02 09:43:25;;;;;;;3.10;0.77;;;;;;;27.31;30.21;100943.97;7395744;19;20010;-57
2023/04/02 09:46:12;;;;;;;1.00;0.63;;;;;;;27.28;30.44;100950.84;7398252;19;20018;-57
2023/04/02 09:48:54;;;;;;;0.93;0.68;;;;;;;27.53;29.85;100951.91;7399252;19;20576;-57
2023/04/02 09:51:30;;;;;;;3.22;1.48;;;;;;;27.61;29.85;100957.66;7399928;19;20424;-57
2023/04/02 09:54:02;;;;;;;1.55;0.80;;;;;;;27.55;29.76;100968.50;7398121;19;20017;-57
2023/04/02 09:56:34;;;;;;;1.00;0.95;;;;;;;27.62;29.26;100976.34;7402358;19;20047;-57
2023/04/02 09:59:12;;;;;;;0.63;0.63;;;;;;;27.89;29.24;100973.94;7397453;19;20034;-57
2023/04/02 10:01:41;;;;;;;0.75;0.75;;;;;;;28.01;29.30;100975.09;7399752;19;20011;-57
2023/04/02 10:04:26;;;;;;;1.45;1.02;;;;;;;28.16;28.86;100970.16;7394004;19;20046;-57
2023/04/02 10:06:56;;;;;;;1.75;1.33;;;;;;;28.34;29.25;100979.72;7395597;19;20029;-57
2023/04/02 10:09:35;;;;;;;1.60;1.50;;;;;;;28.54;28.71;100976.63;7397025;19;20018;-57
2023/04/02 10:12:05;;;;;;;0.88;0.88;;;;;;;28.75;28.76;100973.59;7398599;19;20355;-57
2023/04/02 10:14:42;;;;;;;0.40;0.40;;;;;;;28.78;28.06;100986.00;7397318;19;20046;-57
2023/04/02 10:17:30;;;;;;;0.47;0.47;;;;;;;28.97;28.61;100981.38;7397155;19;20025;-57
2023/04/02 10:20:10;;;;;;;0.45;0.45;;;;;;;29.22;28.87;100988.00;7396671;19;20021;-57
2023/04/02 10:22:36;;;;;;;0.95;0.75;;;;;;;29.13;28.10;100996.41;7399281;19;20018;-57
2023/04/02 10:25:15;;;;;;;0.60;0.60;;;;;;;29.18;28.15;100992.63;7395942;19;20462;-57
2023/04/02 10:28:17;;;;;;;3.50;0.93;;;;;;;29.28;28.07;100995.66;7397631;19;20074;-57
2023/04/02 10:30:55;;;;;;;0.43;0.43;;;;;;;29.28;28.00;101005.03;7396999;19;20355;-57
2023/04/02 10:33:34;;;;;;;1.25;0.98;;;;;;;29.32;27.59;100996.78;7395858;19;20011;-57
2023/04/02 10:36:22;;;;;;;8.50;0.75;;;;;;;29.41;27.87;101001.88;7396616;19;20013;-57
2023/04/02 10:38:48;;;;;;;0.85;0.85;;;;;;;29.48;27.19;101001.09;7395637;19;20078;-57
2023/04/02 10:41:39;;;;;;;1.27;0.75;;;;;;;29.65;28.01;101006.94;7398248;19;20513;-57
2023/04/02 10:44:31;;;;;;;9.75;0.85;;;;;;;29.71;27.12;101016.13;7395612;19;20018;-57
2023/04/02 10:47:12;;;;;;;1.85;1.20;;;;;;;29.71;27.85;101021.88;7395063;19;20007;-57
2023/04/02 10:49:41;;;;;;;0.47;0.47;;;;;;;29.81;26.99;101019.91;7396199;19;20026;-57
2023/04/02 10:52:22;;;;;;;0.73;0.55;;;;;;;29.71;26.69;101027.63;7398984;19;20100;-57
2023/04/02 10:54:55;;;;;;;0.32;0.32;;;;;;;29.71;26.75;101036.22;7396777;19;20015;-57
2023/04/02 10:57:40;;;;;;;7.68;0.63;;;;;;;29.52;27.08;101044.53;7395930;19;20470;-57
2023/04/02 11:00:10;;;;;;;0.30;0.30;;;;;;;29.51;26.35;101047.97;7395761;19;20038;-57
2023/04/02 11:03:01;;;;;;;1.58;0.75;;;;;;;29.61;26.40;101046.03;7399617;19;20030;-57
2023/04/02 11:05:55;;;;;;;0.52;0.47;;;;;;;29.41;26.29;101044.94;7394995;19;20586;-57
2023/04/02 11:08:45;;;;;;;0.57;0.57;;;;;;;29.40;26.02;101043.44;7394545;19;20018;-56
2023/04/02 11:11:21;;;;;;;1.90;0.47;;;;;;;29.43;26.28;101053.78;7396995;19;20011;-56
2023/04/02 11:14:20;;;;;;;0.65;0.40;;;;;;;29.46;26.36;101052.59;7394870;19;20006;-57
2023/04/02 11:16:50;;;;;;;1.75;1.33;;;;;;;29.28;25.57;101048.09;7394702;19;20010;-56
2023/04/02 11:19:16;;;;;;;6.03;0.93;;;;;;;29.35;25.88;101041.53;7395714;19;20027;-56
2023/04/02 11:22:15;;;;;;;1.23;0.32;;;;;;;29.46;26.07;101046.84;7397411;19;20011;-56
2023/04/02 11:24:47;;;;;;;5.72;1.35;;;;;;;29.39;26.23;101044.03;7394006;19;20524;-57
2023/04/02 11:27:28;;;;;;;6.80;1.13;;;;;;;29.28;26.14;101042.34;7394573;19;20084;-57
2023/04/02 11:30:23;;;;;;;0.50;0.40;;;;;;;29.49;26.51;101053.53;7394952;19;20066;-56
2023/04/02 11:32:50;;;;;;;0.73;0.35;;;;;;;29.76;26.37;101051.72;7398812;19;20017;-56
2023/04/02 11:35:31;;;;;;;4.25;1.10;;;;;;;29.93;25.22;101060.47;7394772;19;20340;-58
2023/04/02 11:38:22;;;;;;;3.60;0.80;;;;;;;29.96;25.11;101048.56;7393459;19;20010;-58
2023/04/02 11:40:55;;;;;;;0.20;0.20;;;;;;;29.76;25.07;101058.22;7393020;19;20016;-58
2023/04/02 13:16:17;;;;;;;0.68;0.60;;;;;;;30.27;24.41;101085.72;7398268;19;20316;-56
2023/04/02 13:18:49;;;;;;;2.80;1.38;;;;;;;30.34;24.02;101085.69;7401384;19;20018;-57
2023/04/02 13:21:40;;;;;;;4.88;0.30;;;;;;;30.47;24.29;101070.28;7397627;19;20462;-56
2023/04/02 13:58:25;;;;;;;3.23;0.83;;;;;;;30.69;23.79;101067.22;7396639;19;20007;-51
2023/04/02 14:00:52;;;;;;;0.15;0.15;;;;;;;30.70;23.83;101068.75;7398367;19;20275;-51
2023/04/02 14:03:26;;;;;;;1.55;0.82;;;;;;;30.67;23.56;101074.91;7394139;19;20488;-50
2023/04/02 14:06:48;;;;;;;0.20;0.20;;;;;;;30.45;23.91;101076.59;7390504;19;20082;-56
2023/04/02 14:09:30;;;;;;;1.15;0.57;;;;;;;30.50;23.24;101069.88;7395900;19;20033;-55
2023/04/02 14:12:21;;;;;;;7.13;1.10;;;;;;;30.15;23.80;101071.03;7398390;19;20031;-55
2023/04/02 14:21:57;;;;;;;22.17;4.03;;;;;;;30.24;25.22;101075.38;7397206;19;20007;-54
2023/04/02 14:43:45;;;;;;;0.30;0.25;;;;;;;30.05;23.39;101060.75;7396453;19;20330;-54
2023/04/02 14:49:42;;;;;;;0.20;0.20;;;;;;;30.27;23.52;101054.88;7396003;19;20029;-54